sensor_id;sensor_type;location;lat;lon;timestamp;P1;durP1;ratioP1;P2;durP2;ratioP2
17177;SDS011;8704;52.006;4.374;2022-09-12T00:01:06;24.48;;;21.85;;
17177;SDS011;8704;52.006;4.374;2022-09-12T00:03:35;24.02;;;21.27;;
17177;SDS011;8704;52.006;4.374;2022-09-12T00:06:08;23.40;;;21.05;;
17177;SDS011;8704;52.006;4.374;2022-09-12T00:08:38;24.10;;;21.60;;
17177;SDS011;8704;52.006;4.374;2022-09-12T00:11:07;25.23;;;22.73;;
17177;SDS011;8704;52.006;4.374;2022-09-12T00:13:36;23.65;;;21.10;;
17177;SDS011;8704;52.006;4.374;2022-09-12T00:16:07;23.83;;;21.42;;
17177;SDS011;8704;52.006;4.374;2022-09-12T00:18:43;24.90;;;22.23;;
17177;SDS011;8704;52.006;4.374;2022-09-12T00:21:12;24.92;;;22.52;;
17177;SDS011;8704;52.006;4.374;2022-09-12T00:23:41;26.25;;;21.20;;
17177;SDS011;8704;52.006;4.374;2022-09-12T00:26:09;25.23;;;22.52;;
17177;SDS011;8704;52.006;4.374;2022-09-12T00:28:38;23.88;;;20.60;;
17177;SDS011;8704;52.006;4.374;2022-09-12T00:31:08;24.83;;;21.08;;
17177;SDS011;8704;52.006;4.374;2022-09-12T00:33:37;24.05;;;21.10;;
17177;SDS011;8704;52.006;4.374;2022-09-12T00:36:08;23.92;;;21.52;;
17177;SDS011;8704;52.006;4.374;2022-09-12T00:38:37;21.30;;;19.10;;
17177;SDS011;8704;52.006;4.374;2022-09-12T00:41:09;22.27;;;20.02;;
17177;SDS011;8704;52.006;4.374;2022-09-12T00:43:42;23.15;;;20.67;;
17177;SDS011;8704;52.006;4.374;2022-09-12T00:46:13;23.95;;;21.58;;
17177;SDS011;8704;52.006;4.374;2022-09-12T00:48:51;23.10;;;20.83;;
17177;SDS011;8704;52.006;4.374;2022-09-12T00:51:24;25.63;;;23.05;;
17177;SDS011;8704;52.006;4.374;2022-09-12T00:53:55;24.35;;;21.42;;
17177;SDS011;8704;52.006;4.374;2022-09-12T00:56:25;23.15;;;20.70;;
17177;SDS011;8704;52.006;4.374;2022-09-12T00:58:55;22.42;;;20.33;;
17177;SDS011;8704;52.006;4.374;2022-09-12T01:01:25;24.13;;;21.60;;
17177;SDS011;8704;52.006;4.374;2022-09-12T01:03:58;23.75;;;21.45;;
17177;SDS011;8704;52.006;4.374;2022-09-12T01:06:28;21.90;;;19.60;;
17177;SDS011;8704;52.006;4.374;2022-09-12T01:09:00;22.63;;;20.25;;
17177;SDS011;8704;52.006;4.374;2022-09-12T01:11:30;21.80;;;19.50;;
17177;SDS011;8704;52.006;4.374;2022-09-12T01:14:00;22.83;;;20.35;;
17177;SDS011;8704;52.006;4.374;2022-09-12T01:16:28;21.80;;;19.50;;
17177;SDS011;8704;52.006;4.374;2022-09-12T01:19:00;19.77;;;17.90;;
17177;SDS011;8704;52.006;4.374;2022-09-12T01:21:44;20.60;;;18.60;;
17177;SDS011;8704;52.006;4.374;2022-09-12T01:27:31;21.05;;;18.85;;
17177;SDS011;8704;52.006;4.374;2022-09-12T01:38:51;23.30;;;20.90;;
17177;SDS011;8704;52.006;4.374;2022-09-12T01:41:27;23.80;;;21.48;;
17177;SDS011;8704;52.006;4.374;2022-09-12T01:43:59;23.77;;;21.37;;
17177;SDS011;8704;52.006;4.374;2022-09-12T01:46:34;22.50;;;20.10;;
17177;SDS011;8704;52.006;4.374;2022-09-12T01:49:11;23.42;;;21.08;;
17177;SDS011;8704;52.006;4.374;2022-09-12T01:51:46;22.77;;;20.38;;
17177;SDS011;8704;52.006;4.374;2022-09-12T01:54:21;24.60;;;21.90;;
17177;SDS011;8704;52.006;4.374;2022-09-12T01:56:54;24.00;;;21.50;;
17177;SDS011;8704;52.006;4.374;2022-09-12T01:59:27;25.63;;;21.67;;
17177;SDS011;8704;52.006;4.374;2022-09-12T02:02:01;23.45;;;20.95;;
17177;SDS011;8704;52.006;4.374;2022-09-12T02:04:33;24.25;;;21.67;;
17177;SDS011;8704;52.006;4.374;2022-09-12T02:07:07;25.95;;;21.58;;
17177;SDS011;8704;52.006;4.374;2022-09-12T02:09:41;21.73;;;19.52;;
17177;SDS011;8704;52.006;4.374;2022-09-12T02:12:14;21.52;;;19.38;;
17177;SDS011;8704;52.006;4.374;2022-09-12T02:14:47;20.48;;;18.35;;
17177;SDS011;8704;52.006;4.374;2022-09-12T02:17:21;22.13;;;19.92;;
17177;SDS011;8704;52.006;4.374;2022-09-12T02:19:53;21.50;;;19.35;;
17177;SDS011;8704;52.006;4.374;2022-09-12T02:22:25;22.23;;;19.80;;
17177;SDS011;8704;52.006;4.374;2022-09-12T02:24:56;23.23;;;19.77;;
17177;SDS011;8704;52.006;4.374;2022-09-12T02:27:27;22.07;;;19.70;;
17177;SDS011;8704;52.006;4.374;2022-09-12T02:30:00;22.67;;;20.23;;
17177;SDS011;8704;52.006;4.374;2022-09-12T02:32:31;22.73;;;20.38;;
17177;SDS011;8704;52.006;4.374;2022-09-12T02:35:04;23.52;;;20.90;;
17177;SDS011;8704;52.006;4.374;2022-09-12T02:37:44;26.00;;;21.98;;
17177;SDS011;8704;52.006;4.374;2022-09-12T02:40:22;26.02;;;21.35;;
17177;SDS011;8704;52.006;4.374;2022-09-12T02:42:50;24.05;;;21.52;;
17177;SDS011;8704;52.006;4.374;2022-09-12T02:45:18;23.55;;;21.27;;
17177;SDS011;8704;52.006;4.374;2022-09-12T02:47:50;24.30;;;21.13;;
17177;SDS011;8704;52.006;4.374;2022-09-12T02:50:22;24.55;;;21.88;;
17177;SDS011;8704;52.006;4.374;2022-09-12T02:52:50;24.42;;;21.85;;
17177;SDS011;8704;52.006;4.374;2022-09-12T02:55:20;26.67;;;23.70;;
17177;SDS011;8704;52.006;4.374;2022-09-12T02:57:49;24.98;;;21.25;;
17177;SDS011;8704;52.006;4.374;2022-09-12T03:00:17;24.00;;;21.48;;
17177;SDS011;8704;52.006;4.374;2022-09-12T03:05:39;23.83;;;21.35;;
17177;SDS011;8704;52.006;4.374;2022-09-12T03:08:26;24.60;;;22.10;;
17177;SDS011;8704;52.006;4.374;2022-09-12T03:11:17;23.77;;;21.27;;
17177;SDS011;8704;52.006;4.374;2022-09-12T03:13:56;26.73;;;22.30;;
17177;SDS011;8704;52.006;4.374;2022-09-12T03:16:33;21.77;;;19.48;;
17177;SDS011;8704;52.006;4.374;2022-09-12T03:19:12;25.08;;;22.48;;
17177;SDS011;8704;52.006;4.374;2022-09-12T03:21:50;23.05;;;19.90;;
17177;SDS011;8704;52.006;4.374;2022-09-12T03:24:25;25.98;;;22.30;;
17177;SDS011;8704;52.006;4.374;2022-09-12T03:27:00;23.38;;;20.98;;
17177;SDS011;8704;52.006;4.374;2022-09-12T03:29:34;21.95;;;18.77;;
17177;SDS011;8704;52.006;4.374;2022-09-12T03:32:04;21.80;;;19.30;;
17177;SDS011;8704;52.006;4.374;2022-09-12T03:34:34;23.42;;;20.85;;
17177;SDS011;8704;52.006;4.374;2022-09-12T03:37:02;23.63;;;21.00;;
17177;SDS011;8704;52.006;4.374;2022-09-12T03:39:30;25.40;;;22.13;;
17177;SDS011;8704;52.006;4.374;2022-09-12T03:41:58;24.83;;;20.38;;
17177;SDS011;8704;52.006;4.374;2022-09-12T03:44:26;21.88;;;19.48;;
17177;SDS011;8704;52.006;4.374;2022-09-12T03:46:54;22.73;;;20.35;;
17177;SDS011;8704;52.006;4.374;2022-09-12T03:49:22;23.85;;;19.50;;
17177;SDS011;8704;52.006;4.374;2022-09-12T03:51:51;25.35;;;22.75;;
17177;SDS011;8704;52.006;4.374;2022-09-12T03:54:19;24.30;;;21.70;;
17177;SDS011;8704;52.006;4.374;2022-09-12T03:56:47;23.63;;;20.50;;
17177;SDS011;8704;52.006;4.374;2022-09-12T03:59:15;25.42;;;21.73;;
17177;SDS011;8704;52.006;4.374;2022-09-12T04:01:43;24.52;;;22.05;;
17177;SDS011;8704;52.006;4.374;2022-09-12T04:04:11;24.15;;;21.55;;
17177;SDS011;8704;52.006;4.374;2022-09-12T04:06:39;20.50;;;18.33;;
17177;SDS011;8704;52.006;4.374;2022-09-12T04:09:09;22.77;;;20.38;;
17177;SDS011;8704;52.006;4.374;2022-09-12T04:11:37;21.15;;;18.85;;
17177;SDS011;8704;52.006;4.374;2022-09-12T04:14:05;22.60;;;19.75;;
17177;SDS011;8704;52.006;4.374;2022-09-12T04:16:33;23.75;;;20.67;;
17177;SDS011;8704;52.006;4.374;2022-09-12T04:19:01;26.05;;;21.90;;
17177;SDS011;8704;52.006;4.374;2022-09-12T04:21:28;26.02;;;23.27;;
17177;SDS011;8704;52.006;4.374;2022-09-12T04:23:57;23.80;;;21.08;;
17177;SDS011;8704;52.006;4.374;2022-09-12T04:26:26;22.63;;;20.20;;
17177;SDS011;8704;52.006;4.374;2022-09-12T04:28:54;21.20;;;18.42;;
17177;SDS011;8704;52.006;4.374;2022-09-12T04:31:23;23.92;;;20.77;;
17177;SDS011;8704;52.006;4.374;2022-09-12T04:33:52;22.35;;;19.83;;
17177;SDS011;8704;52.006;4.374;2022-09-12T04:36:21;23.85;;;20.13;;
17177;SDS011;8704;52.006;4.374;2022-09-12T04:38:49;24.90;;;21.05;;
17177;SDS011;8704;52.006;4.374;2022-09-12T04:41:18;22.13;;;18.83;;
17177;SDS011;8704;52.006;4.374;2022-09-12T04:43:52;21.58;;;18.77;;
17177;SDS011;8704;52.006;4.374;2022-09-12T04:46:23;21.40;;;19.08;;
17177;SDS011;8704;52.006;4.374;2022-09-12T04:48:52;23.92;;;20.77;;
17177;SDS011;8704;52.006;4.374;2022-09-12T04:51:22;26.05;;;23.20;;
17177;SDS011;8704;52.006;4.374;2022-09-12T04:53:53;22.85;;;20.35;;
17177;SDS011;8704;52.006;4.374;2022-09-12T04:56:22;24.58;;;21.33;;
17177;SDS011;8704;52.006;4.374;2022-09-12T04:58:52;26.77;;;21.45;;
17177;SDS011;8704;52.006;4.374;2022-09-12T05:01:22;24.38;;;21.25;;
17177;SDS011;8704;52.006;4.374;2022-09-12T05:03:50;27.33;;;23.20;;
17177;SDS011;8704;52.006;4.374;2022-09-12T05:06:19;25.42;;;22.65;;
17177;SDS011;8704;52.006;4.374;2022-09-12T05:08:49;27.48;;;23.70;;
17177;SDS011;8704;52.006;4.374;2022-09-12T05:11:18;29.40;;;22.90;;
17177;SDS011;8704;52.006;4.374;2022-09-12T05:13:53;25.75;;;22.95;;
17177;SDS011;8704;52.006;4.374;2022-09-12T05:16:21;30.13;;;25.25;;
17177;SDS011;8704;52.006;4.374;2022-09-12T05:18:50;28.98;;;25.30;;
17177;SDS011;8704;52.006;4.374;2022-09-12T05:21:19;31.25;;;25.98;;
17177;SDS011;8704;52.006;4.374;2022-09-12T05:23:49;28.67;;;24.52;;
17177;SDS011;8704;52.006;4.374;2022-09-12T05:26:18;31.02;;;27.40;;
17177;SDS011;8704;52.006;4.374;2022-09-12T05:28:47;36.63;;;30.27;;
17177;SDS011;8704;52.006;4.374;2022-09-12T05:31:17;39.28;;;30.13;;
17177;SDS011;8704;52.006;4.374;2022-09-12T05:33:47;33.63;;;28.88;;
17177;SDS011;8704;52.006;4.374;2022-09-12T05:36:17;33.50;;;28.92;;
17177;SDS011;8704;52.006;4.374;2022-09-12T05:38:46;37.65;;;30.30;;
17177;SDS011;8704;52.006;4.374;2022-09-12T05:41:15;33.05;;;27.77;;
17177;SDS011;8704;52.006;4.374;2022-09-12T05:43:50;33.88;;;27.60;;
17177;SDS011;8704;52.006;4.374;2022-09-12T05:46:22;34.47;;;29.55;;
17177;SDS011;8704;52.006;4.374;2022-09-12T05:48:52;35.67;;;29.10;;
17177;SDS011;8704;52.006;4.374;2022-09-12T05:51:22;43.70;;;32.25;;
17177;SDS011;8704;52.006;4.374;2022-09-12T05:53:52;38.80;;;31.77;;
17177;SDS011;8704;52.006;4.374;2022-09-12T05:56:22;34.67;;;29.40;;
17177;SDS011;8704;52.006;4.374;2022-09-12T05:58:52;36.08;;;30.02;;
17177;SDS011;8704;52.006;4.374;2022-09-12T06:01:22;36.20;;;28.13;;
17177;SDS011;8704;52.006;4.374;2022-09-12T06:03:52;38.08;;;32.50;;
17177;SDS011;8704;52.006;4.374;2022-09-12T06:06:22;35.70;;;29.23;;
17177;SDS011;8704;52.006;4.374;2022-09-12T06:08:51;36.03;;;29.40;;
17177;SDS011;8704;52.006;4.374;2022-09-12T06:11:25;37.15;;;30.27;;
17177;SDS011;8704;52.006;4.374;2022-09-12T06:13:55;37.30;;;31.92;;
17177;SDS011;8704;52.006;4.374;2022-09-12T06:16:25;40.70;;;33.72;;
17177;SDS011;8704;52.006;4.374;2022-09-12T06:18:55;41.28;;;34.10;;
17177;SDS011;8704;52.006;4.374;2022-09-12T06:21:24;44.65;;;34.58;;
17177;SDS011;8704;52.006;4.374;2022-09-12T06:23:53;42.00;;;34.08;;
17177;SDS011;8704;52.006;4.374;2022-09-12T06:26:21;40.03;;;34.58;;
17177;SDS011;8704;52.006;4.374;2022-09-12T06:28:51;45.15;;;37.05;;
17177;SDS011;8704;52.006;4.374;2022-09-12T06:31:20;47.38;;;37.15;;
17177;SDS011;8704;52.006;4.374;2022-09-12T06:33:52;45.22;;;37.90;;
17177;SDS011;8704;52.006;4.374;2022-09-12T06:36:21;51.40;;;42.30;;
17177;SDS011;8704;52.006;4.374;2022-09-12T06:38:52;55.30;;;41.70;;
17177;SDS011;8704;52.006;4.374;2022-09-12T06:41:21;51.28;;;40.67;;
17177;SDS011;8704;52.006;4.374;2022-09-12T06:43:50;44.85;;;38.70;;
17177;SDS011;8704;52.006;4.374;2022-09-12T06:46:19;51.60;;;38.85;;
17177;SDS011;8704;52.006;4.374;2022-09-12T06:48:48;56.80;;;45.40;;
17177;SDS011;8704;52.006;4.374;2022-09-12T06:51:18;58.55;;;43.85;;
17177;SDS011;8704;52.006;4.374;2022-09-12T06:53:48;55.00;;;43.30;;
17177;SDS011;8704;52.006;4.374;2022-09-12T06:56:16;58.45;;;43.63;;
17177;SDS011;8704;52.006;4.374;2022-09-12T06:58:46;56.75;;;44.80;;
17177;SDS011;8704;52.006;4.374;2022-09-12T07:01:15;54.33;;;42.10;;
17177;SDS011;8704;52.006;4.374;2022-09-12T07:03:46;49.38;;;37.95;;
17177;SDS011;8704;52.006;4.374;2022-09-12T07:06:18;50.13;;;39.28;;
17177;SDS011;8704;52.006;4.374;2022-09-12T07:08:47;47.63;;;36.65;;
17177;SDS011;8704;52.006;4.374;2022-09-12T07:11:15;44.88;;;34.75;;
17177;SDS011;8704;52.006;4.374;2022-09-12T07:13:46;43.03;;;35.28;;
17177;SDS011;8704;52.006;4.374;2022-09-12T07:16:15;43.47;;;34.60;;
17177;SDS011;8704;52.006;4.374;2022-09-12T07:18:48;42.75;;;32.50;;
17177;SDS011;8704;52.006;4.374;2022-09-12T07:21:18;42.17;;;33.00;;
17177;SDS011;8704;52.006;4.374;2022-09-12T07:23:46;39.70;;;32.13;;
17177;SDS011;8704;52.006;4.374;2022-09-12T07:26:17;41.80;;;32.53;;
17177;SDS011;8704;52.006;4.374;2022-09-12T07:28:45;40.00;;;33.30;;
17177;SDS011;8704;52.006;4.374;2022-09-12T07:31:17;39.70;;;32.28;;
17177;SDS011;8704;52.006;4.374;2022-09-12T07:33:45;38.53;;;31.80;;
17177;SDS011;8704;52.006;4.374;2022-09-12T07:36:21;39.28;;;31.75;;
17177;SDS011;8704;52.006;4.374;2022-09-12T07:38:53;35.58;;;30.52;;
17177;SDS011;8704;52.006;4.374;2022-09-12T07:41:23;38.72;;;31.10;;
17177;SDS011;8704;52.006;4.374;2022-09-12T07:43:52;37.22;;;29.17;;
17177;SDS011;8704;52.006;4.374;2022-09-12T07:46:22;33.42;;;27.17;;
17177;SDS011;8704;52.006;4.374;2022-09-12T07:48:50;38.35;;;29.67;;
17177;SDS011;8704;52.006;4.374;2022-09-12T07:51:20;37.10;;;28.67;;
17177;SDS011;8704;52.006;4.374;2022-09-12T07:53:52;36.28;;;27.75;;
17177;SDS011;8704;52.006;4.374;2022-09-12T07:56:21;29.73;;;25.80;;
17177;SDS011;8704;52.006;4.374;2022-09-12T07:58:55;31.17;;;25.83;;
17177;SDS011;8704;52.006;4.374;2022-09-12T08:01:24;31.13;;;24.17;;
17177;SDS011;8704;52.006;4.374;2022-09-12T08:03:52;29.27;;;23.13;;
17177;SDS011;8704;52.006;4.374;2022-09-12T08:06:25;31.80;;;23.88;;
17177;SDS011;8704;52.006;4.374;2022-09-12T08:11:24;28.85;;;21.30;;
17177;SDS011;8704;52.006;4.374;2022-09-12T08:13:54;26.73;;;22.75;;
17177;SDS011;8704;52.006;4.374;2022-09-12T08:16:24;26.27;;;19.92;;
17177;SDS011;8704;52.006;4.374;2022-09-12T08:18:53;27.02;;;20.02;;
17177;SDS011;8704;52.006;4.374;2022-09-12T08:21:22;23.83;;;19.67;;
17177;SDS011;8704;52.006;4.374;2022-09-12T08:23:53;22.27;;;19.13;;
17177;SDS011;8704;52.006;4.374;2022-09-12T08:26:23;21.25;;;14.70;;
17177;SDS011;8704;52.006;4.374;2022-09-12T08:28:51;18.30;;;14.27;;
17177;SDS011;8704;52.006;4.374;2022-09-12T08:31:20;14.13;;;11.43;;
17177;SDS011;8704;52.006;4.374;2022-09-12T08:33:49;13.77;;;10.55;;
17177;SDS011;8704;52.006;4.374;2022-09-12T08:36:18;12.95;;;10.77;;
17177;SDS011;8704;52.006;4.374;2022-09-12T08:38:49;13.88;;;10.95;;
17177;SDS011;8704;52.006;4.374;2022-09-12T08:41:25;12.45;;;9.13;;
17177;SDS011;8704;52.006;4.374;2022-09-12T08:44:09;12.98;;;9.02;;
17177;SDS011;8704;52.006;4.374;2022-09-12T08:47:10;15.48;;;9.38;;
17177;SDS011;8704;52.006;4.374;2022-09-12T08:49:58;12.88;;;10.02;;
17177;SDS011;8704;52.006;4.374;2022-09-12T08:52:32;12.20;;;9.23;;
17177;SDS011;8704;52.006;4.374;2022-09-12T08:55:11;12.93;;;9.05;;
17177;SDS011;8704;52.006;4.374;2022-09-12T08:57:49;7.90;;;6.93;;
17177;SDS011;8704;52.006;4.374;2022-09-12T09:00:18;8.27;;;6.15;;
17177;SDS011;8704;52.006;4.374;2022-09-12T09:02:53;6.85;;;5.80;;
17177;SDS011;8704;52.006;4.374;2022-09-12T09:05:46;6.75;;;4.85;;
17177;SDS011;8704;52.006;4.374;2022-09-12T09:11:22;5.00;;;4.38;;
17177;SDS011;8704;52.006;4.374;2022-09-12T09:14:08;8.55;;;4.15;;
17177;SDS011;8704;52.006;4.374;2022-09-12T09:17:07;8.65;;;4.20;;
17177;SDS011;8704;52.006;4.374;2022-09-12T09:19:39;6.18;;;4.40;;
17177;SDS011;8704;52.006;4.374;2022-09-12T09:22:17;5.72;;;3.90;;
17177;SDS011;8704;52.006;4.374;2022-09-12T09:24:57;6.70;;;4.07;;
17177;SDS011;8704;52.006;4.374;2022-09-12T09:27:30;5.40;;;4.35;;
17177;SDS011;8704;52.006;4.374;2022-09-12T09:30:07;8.70;;;3.85;;
17177;SDS011;8704;52.006;4.374;2022-09-12T09:32:40;5.65;;;3.78;;
17177;SDS011;8704;52.006;4.374;2022-09-12T09:35:13;7.18;;;4.07;;
17177;SDS011;8704;52.006;4.374;2022-09-12T09:40:24;4.40;;;3.53;;
17177;SDS011;8704;52.006;4.374;2022-09-12T09:42:59;6.13;;;3.70;;
17177;SDS011;8704;52.006;4.374;2022-09-12T09:45:33;6.50;;;3.53;;
17177;SDS011;8704;52.006;4.374;2022-09-12T09:48:03;5.47;;;4.18;;
17177;SDS011;8704;52.006;4.374;2022-09-12T09:50:42;7.18;;;4.20;;
17177;SDS011;8704;52.006;4.374;2022-09-12T09:53:14;6.10;;;4.20;;
17177;SDS011;8704;52.006;4.374;2022-09-12T09:55:58;5.30;;;4.10;;
17177;SDS011;8704;52.006;4.374;2022-09-12T09:58:31;6.32;;;4.18;;
17177;SDS011;8704;52.006;4.374;2022-09-12T10:01:01;8.10;;;4.10;;
17177;SDS011;8704;52.006;4.374;2022-09-12T10:03:32;6.10;;;3.47;;
17177;SDS011;8704;52.006;4.374;2022-09-12T10:06:20;7.07;;;3.80;;
17177;SDS011;8704;52.006;4.374;2022-09-12T10:08:51;6.78;;;3.83;;
17177;SDS011;8704;52.006;4.374;2022-09-12T10:11:43;5.72;;;4.03;;
17177;SDS011;8704;52.006;4.374;2022-09-12T10:14:29;7.95;;;4.32;;
17177;SDS011;8704;52.006;4.374;2022-09-12T10:17:00;5.45;;;4.07;;
17177;SDS011;8704;52.006;4.374;2022-09-12T10:19:34;6.72;;;4.47;;
17177;SDS011;8704;52.006;4.374;2022-09-12T10:22:04;6.38;;;4.30;;
17177;SDS011;8704;52.006;4.374;2022-09-12T10:24:33;7.78;;;3.78;;
17177;SDS011;8704;52.006;4.374;2022-09-12T10:27:07;6.45;;;4.35;;
17177;SDS011;8704;52.006;4.374;2022-09-12T10:29:42;7.55;;;5.00;;
17177;SDS011;8704;52.006;4.374;2022-09-12T10:32:18;7.70;;;3.92;;
17177;SDS011;8704;52.006;4.374;2022-09-12T10:34:56;7.35;;;4.65;;
17177;SDS011;8704;52.006;4.374;2022-09-12T10:37:29;6.70;;;4.55;;
17177;SDS011;8704;52.006;4.374;2022-09-12T10:39:59;6.00;;;3.80;;
17177;SDS011;8704;52.006;4.374;2022-09-12T10:42:43;6.40;;;3.63;;
17177;SDS011;8704;52.006;4.374;2022-09-12T10:45:18;4.85;;;3.03;;
17177;SDS011;8704;52.006;4.374;2022-09-12T10:47:49;5.60;;;3.70;;
17177;SDS011;8704;52.006;4.374;2022-09-12T10:50:19;7.50;;;3.45;;
17177;SDS011;8704;52.006;4.374;2022-09-12T10:52:52;4.38;;;3.38;;
17177;SDS011;8704;52.006;4.374;2022-09-12T10:55:21;4.97;;;3.38;;
17177;SDS011;8704;52.006;4.374;2022-09-12T10:58:04;7.82;;;3.25;;
17177;SDS011;8704;52.006;4.374;2022-09-12T11:00:49;5.75;;;3.30;;
17177;SDS011;8704;52.006;4.374;2022-09-12T11:03:29;3.78;;;2.80;;
17177;SDS011;8704;52.006;4.374;2022-09-12T11:06:06;6.28;;;2.85;;
17177;SDS011;8704;52.006;4.374;2022-09-12T11:08:41;3.15;;;2.45;;
17177;SDS011;8704;52.006;4.374;2022-09-12T11:11:22;4.50;;;2.75;;
17177;SDS011;8704;52.006;4.374;2022-09-12T11:14:08;4.57;;;2.80;;
17177;SDS011;8704;52.006;4.374;2022-09-12T11:16:50;4.70;;;2.78;;
17177;SDS011;8704;52.006;4.374;2022-09-12T11:19:32;4.43;;;2.50;;
17177;SDS011;8704;52.006;4.374;2022-09-12T11:22:16;5.78;;;3.10;;
17177;SDS011;8704;52.006;4.374;2022-09-12T11:25:09;5.05;;;2.85;;
17177;SDS011;8704;52.006;4.374;2022-09-12T11:27:47;4.88;;;2.65;;
17177;SDS011;8704;52.006;4.374;2022-09-12T11:30:27;4.68;;;2.80;;
17177;SDS011;8704;52.006;4.374;2022-09-12T11:33:13;3.45;;;2.63;;
17177;SDS011;8704;52.006;4.374;2022-09-12T11:35:53;4.72;;;3.10;;
17177;SDS011;8704;52.006;4.374;2022-09-12T11:38:27;3.70;;;2.85;;
17177;SDS011;8704;52.006;4.374;2022-09-12T11:41:08;3.75;;;2.67;;
17177;SDS011;8704;52.006;4.374;2022-09-12T11:43:44;5.80;;;3.00;;
17177;SDS011;8704;52.006;4.374;2022-09-12T11:46:19;3.70;;;2.50;;
17177;SDS011;8704;52.006;4.374;2022-09-12T11:48:52;5.05;;;2.70;;
17177;SDS011;8704;52.006;4.374;2022-09-12T11:51:24;5.43;;;3.13;;
17177;SDS011;8704;52.006;4.374;2022-09-12T11:53:58;4.32;;;2.67;;
17177;SDS011;8704;52.006;4.374;2022-09-12T11:56:31;3.88;;;2.60;;
17177;SDS011;8704;52.006;4.374;2022-09-12T11:59:08;4.78;;;2.85;;
17177;SDS011;8704;52.006;4.374;2022-09-12T12:01:42;4.10;;;2.58;;
17177;SDS011;8704;52.006;4.374;2022-09-12T12:04:16;6.88;;;3.17;;
17177;SDS011;8704;52.006;4.374;2022-09-12T12:06:48;5.25;;;2.42;;
17177;SDS011;8704;52.006;4.374;2022-09-12T12:09:20;3.20;;;2.40;;
17177;SDS011;8704;52.006;4.374;2022-09-12T12:11:49;5.22;;;2.33;;
17177;SDS011;8704;52.006;4.374;2022-09-12T12:14:21;4.40;;;2.80;;
17177;SDS011;8704;52.006;4.374;2022-09-12T12:19:26;3.67;;;2.40;;
17177;SDS011;8704;52.006;4.374;2022-09-12T12:22:07;4.05;;;2.63;;
17177;SDS011;8704;52.006;4.374;2022-09-12T12:24:53;4.55;;;2.22;;
17177;SDS011;8704;52.006;4.374;2022-09-12T12:27:45;4.43;;;2.33;;
17177;SDS011;8704;52.006;4.374;2022-09-12T12:36:41;4.32;;;2.13;;
17177;SDS011;8704;52.006;4.374;2022-09-12T12:48:43;3.65;;;2.03;;
17177;SDS011;8704;52.006;4.374;2022-09-12T12:57:19;4.55;;;2.00;;
17177;SDS011;8704;52.006;4.374;2022-09-12T12:59:55;4.07;;;2.22;;
17177;SDS011;8704;52.006;4.374;2022-09-12T13:04:57;4.45;;;2.38;;
17177;SDS011;8704;52.006;4.374;2022-09-12T13:07:42;3.60;;;2.08;;
17177;SDS011;8704;52.006;4.374;2022-09-12T13:10:19;4.55;;;2.65;;
17177;SDS011;8704;52.006;4.374;2022-09-12T13:12:50;3.90;;;2.40;;
17177;SDS011;8704;52.006;4.374;2022-09-12T13:15:45;5.28;;;2.30;;
17177;SDS011;8704;52.006;4.374;2022-09-12T13:18:16;4.40;;;2.05;;
17177;SDS011;8704;52.006;4.374;2022-09-12T13:20:50;4.97;;;2.40;;
17177;SDS011;8704;52.006;4.374;2022-09-12T13:23:25;3.70;;;2.33;;
17177;SDS011;8704;52.006;4.374;2022-09-12T13:25:55;4.70;;;2.55;;
17177;SDS011;8704;52.006;4.374;2022-09-12T13:28:24;4.13;;;2.28;;
17177;SDS011;8704;52.006;4.374;2022-09-12T13:30:55;4.93;;;2.15;;
17177;SDS011;8704;52.006;4.374;2022-09-12T13:33:32;3.72;;;2.28;;
17177;SDS011;8704;52.006;4.374;2022-09-12T13:36:08;6.72;;;2.50;;
17177;SDS011;8704;52.006;4.374;2022-09-12T13:39:08;5.43;;;2.20;;
17177;SDS011;8704;52.006;4.374;2022-09-12T13:41:49;3.95;;;2.63;;
17177;SDS011;8704;52.006;4.374;2022-09-12T13:44:40;4.65;;;2.60;;
17177;SDS011;8704;52.006;4.374;2022-09-12T13:47:12;6.22;;;3.17;;
17177;SDS011;8704;52.006;4.374;2022-09-12T13:49:42;6.55;;;3.40;;
17177;SDS011;8704;52.006;4.374;2022-09-12T13:52:14;5.57;;;2.95;;
17177;SDS011;8704;52.006;4.374;2022-09-12T13:54:47;5.22;;;3.05;;
17177;SDS011;8704;52.006;4.374;2022-09-12T13:57:28;4.25;;;2.67;;
17177;SDS011;8704;52.006;4.374;2022-09-12T13:59:58;4.45;;;2.47;;
17177;SDS011;8704;52.006;4.374;2022-09-12T14:02:27;3.85;;;2.13;;
17177;SDS011;8704;52.006;4.374;2022-09-12T14:04:56;4.60;;;2.35;;
17177;SDS011;8704;52.006;4.374;2022-09-12T14:07:49;4.50;;;2.60;;
17177;SDS011;8704;52.006;4.374;2022-09-12T14:10:25;7.35;;;3.00;;
17177;SDS011;8704;52.006;4.374;2022-09-12T14:12:57;4.45;;;2.85;;
17177;SDS011;8704;52.006;4.374;2022-09-12T14:15:27;6.75;;;3.08;;
17177;SDS011;8704;52.006;4.374;2022-09-12T14:17:58;5.13;;;3.00;;
17177;SDS011;8704;52.006;4.374;2022-09-12T14:20:27;4.55;;;2.90;;
17177;SDS011;8704;52.006;4.374;2022-09-12T14:22:58;5.05;;;2.83;;
17177;SDS011;8704;52.006;4.374;2022-09-12T14:25:31;4.88;;;2.50;;
17177;SDS011;8704;52.006;4.374;2022-09-12T14:28:04;4.93;;;3.00;;
17177;SDS011;8704;52.006;4.374;2022-09-12T14:30:33;5.18;;;3.10;;
17177;SDS011;8704;52.006;4.374;2022-09-12T14:33:15;5.50;;;2.85;;
17177;SDS011;8704;52.006;4.374;2022-09-12T14:35:46;3.88;;;2.70;;
17177;SDS011;8704;52.006;4.374;2022-09-12T14:38:18;3.95;;;2.70;;
17177;SDS011;8704;52.006;4.374;2022-09-12T14:40:58;6.75;;;2.40;;
17177;SDS011;8704;52.006;4.374;2022-09-12T14:43:28;5.22;;;3.05;;
17177;SDS011;8704;52.006;4.374;2022-09-12T14:45:58;4.25;;;3.10;;
17177;SDS011;8704;52.006;4.374;2022-09-12T14:48:29;4.57;;;2.92;;
17177;SDS011;8704;52.006;4.374;2022-09-12T14:51:00;3.90;;;2.67;;
17177;SDS011;8704;52.006;4.374;2022-09-12T14:53:30;5.68;;;2.63;;
17177;SDS011;8704;52.006;4.374;2022-09-12T14:56:08;5.63;;;2.67;;
17177;SDS011;8704;52.006;4.374;2022-09-12T14:58:38;5.05;;;2.38;;
17177;SDS011;8704;52.006;4.374;2022-09-12T15:03:56;4.93;;;3.08;;
17177;SDS011;8704;52.006;4.374;2022-09-12T15:06:26;5.20;;;3.15;;
17177;SDS011;8704;52.006;4.374;2022-09-12T15:08:56;4.47;;;3.03;;
17177;SDS011;8704;52.006;4.374;2022-09-12T15:11:27;4.78;;;3.30;;
17177;SDS011;8704;52.006;4.374;2022-09-12T15:13:55;5.88;;;2.90;;
17177;SDS011;8704;52.006;4.374;2022-09-12T15:16:23;5.63;;;2.83;;
17177;SDS011;8704;52.006;4.374;2022-09-12T15:18:51;4.68;;;3.40;;
17177;SDS011;8704;52.006;4.374;2022-09-12T15:21:19;5.78;;;3.00;;
17177;SDS011;8704;52.006;4.374;2022-09-12T15:23:48;3.95;;;2.42;;
17177;SDS011;8704;52.006;4.374;2022-09-12T15:26:17;4.20;;;2.75;;
17177;SDS011;8704;52.006;4.374;2022-09-12T15:28:48;4.97;;;2.55;;
17177;SDS011;8704;52.006;4.374;2022-09-12T15:31:20;5.50;;;2.85;;
17177;SDS011;8704;52.006;4.374;2022-09-12T15:33:50;4.85;;;2.80;;
17177;SDS011;8704;52.006;4.374;2022-09-12T15:36:19;6.13;;;2.38;;
17177;SDS011;8704;52.006;4.374;2022-09-12T15:38:50;4.50;;;2.63;;
17177;SDS011;8704;52.006;4.374;2022-09-12T15:41:19;5.85;;;3.10;;
17177;SDS011;8704;52.006;4.374;2022-09-12T15:43:49;4.45;;;2.72;;
17177;SDS011;8704;52.006;4.374;2022-09-12T15:46:17;5.95;;;3.13;;
17177;SDS011;8704;52.006;4.374;2022-09-12T15:48:46;5.90;;;2.97;;
17177;SDS011;8704;52.006;4.374;2022-09-12T15:51:14;5.97;;;2.70;;
17177;SDS011;8704;52.006;4.374;2022-09-12T15:53:44;4.25;;;2.85;;
17177;SDS011;8704;52.006;4.374;2022-09-12T15:56:14;5.53;;;2.60;;
17177;SDS011;8704;52.006;4.374;2022-09-12T15:58:43;3.97;;;2.83;;
17177;SDS011;8704;52.006;4.374;2022-09-12T16:01:25;4.72;;;2.80;;
17177;SDS011;8704;52.006;4.374;2022-09-12T16:03:54;5.22;;;2.85;;
17177;SDS011;8704;52.006;4.374;2022-09-12T16:06:22;4.95;;;2.47;;
17177;SDS011;8704;52.006;4.374;2022-09-12T16:08:51;4.28;;;2.67;;
17177;SDS011;8704;52.006;4.374;2022-09-12T16:11:19;5.90;;;2.60;;